Sibi Weather



Sibi's Current Weather

Temprature 29.84o clear sky

clear sky

Rain: 0 %

Min Temprature29.84o
Max Temprature29.84o
Humidity46
Wind Speed1.77 m/h
Sun Rise06:18:43
Sun Set18:21:09
Current Time: 26-Sep-2022 08:21:07
Lat/Lon: 29.5448, 67.8764




Sibi's Geo Location



Sibi's Weather Forecast

Time Overall Temp Min Temp Max Temp Humidity Wind Speed Rain
26-Sep-2022 (Mon)
11:00:00 clear sky 30.920 30.920 33.080 43 2.85 m/h 0 %
14:00:00 clear sky 33.870 33.870 35.880 35 3.42 m/h 0 %
17:00:00 clear sky 36.200 36.200 36.200 27 4.61 m/h 0 %
20:00:00 clear sky 34.310 34.310 34.310 31 3.17 m/h 0 %
23:00:00 clear sky 32.800 32.800 32.800 34 2.34 m/h 0 %
27-Sep-2022 (Tue)
02:00:00 clear sky 30.920 30.920 30.920 39 1.48 m/h 0 %
05:00:00 clear sky 29.620 29.620 29.620 41 1.64 m/h 0 %
08:00:00 clear sky 30.420 30.420 30.420 37 1.56 m/h 0 %
11:00:00 clear sky 33.840 33.840 33.840 28 2.47 m/h 0 %
14:00:00 clear sky 36.480 36.480 36.480 22 3.09 m/h 0 %
17:00:00 clear sky 37.010 37.010 37.010 20 3.44 m/h 0 %
20:00:00 clear sky 34.520 34.520 34.520 26 2.39 m/h 0 %
23:00:00 clear sky 32.730 32.730 32.730 31 2.39 m/h 0 %
28-Sep-2022 (Wed)
02:00:00 clear sky 30.770 30.770 30.770 34 1.65 m/h 0 %
05:00:00 clear sky 29.350 29.350 29.350 38 1.87 m/h 0 %
08:00:00 clear sky 29.930 29.930 29.930 38 1.69 m/h 0 %
11:00:00 clear sky 33.460 33.460 33.460 30 1.82 m/h 0 %
14:00:00 clear sky 36.500 36.500 36.500 22 2.52 m/h 0 %
17:00:00 clear sky 37.050 37.050 37.050 19 3.57 m/h 0 %
20:00:00 clear sky 34.210 34.210 34.210 27 3.21 m/h 0 %
23:00:00 clear sky 32.560 32.560 32.560 32 2.41 m/h 0 %
29-Sep-2022 (Thu)
02:00:00 clear sky 30.630 30.630 30.630 39 1.35 m/h 0 %
05:00:00 clear sky 28.550 28.550 28.550 45 2.61 m/h 0 %
08:00:00 clear sky 28.920 28.920 28.920 51 1.62 m/h 0 %
11:00:00 clear sky 32.660 32.660 32.660 38 1.84 m/h 0 %
14:00:00 clear sky 35.820 35.820 35.820 28 2.62 m/h 0 %
17:00:00 clear sky 36.420 36.420 36.420 25 3.5 m/h 0 %
20:00:00 clear sky 33.990 33.990 33.990 30 3.32 m/h 0 %
23:00:00 clear sky 32.500 32.500 32.500 33 2.12 m/h 0 %
30-Sep-2022 (Fri)
02:00:00 clear sky 30.690 30.690 30.690 36 1.92 m/h 0 %
05:00:00 clear sky 29.120 29.120 29.120 39 1.44 m/h 0 %
08:00:00 clear sky 29.720 29.720 29.720 43 1.82 m/h 0 %
11:00:00 clear sky 33.480 33.480 33.480 33 2.34 m/h 0 %
14:00:00 clear sky 36.390 36.390 36.390 25 3.15 m/h 0 %
17:00:00 clear sky 36.750 36.750 36.750 21 4.14 m/h 0 %
20:00:00 clear sky 34.030 34.030 34.030 26 3.07 m/h 0 %
23:00:00 clear sky 32.240 32.240 32.240 29 1.71 m/h 0 %
01-Oct-2022 (Sat)
02:00:00 clear sky 30.230 30.230 30.230 37 1.48 m/h 0 %
05:00:00 clear sky 28.810 28.810 28.810 42 1.32 m/h 0 %
08:00:00 clear sky 30.130 30.130 30.130 39 1.61 m/h 0 %

Famous Cities (61)